sensor_id;sensor_type;location;lat;lon;timestamp;pressure;altitude;pressure_sealevel;temperature;humidity
53340;BME280;46212;50.258;19.062;2023-01-23T00:02:14;99911.09;;;2.16;93.98
53340;BME280;46212;50.258;19.062;2023-01-23T00:04:40;99913.59;;;2.28;94.05
53340;BME280;46212;50.258;19.062;2023-01-23T00:07:05;99892.50;;;2.54;93.28
53340;BME280;46212;50.258;19.062;2023-01-23T00:09:30;99916.59;;;2.79;92.35
53340;BME280;46212;50.258;19.062;2023-01-23T00:11:56;99925.31;;;2.61;92.40
53340;BME280;46212;50.258;19.062;2023-01-23T00:14:22;99916.44;;;2.38;93.08
53340;BME280;46212;50.258;19.062;2023-01-23T00:16:47;99917.22;;;2.39;93.57
53340;BME280;46212;50.258;19.062;2023-01-23T00:19:13;99935.22;;;2.43;93.31
53340;BME280;46212;50.258;19.062;2023-01-23T00:21:38;99938.25;;;2.38;93.47
53340;BME280;46212;50.258;19.062;2023-01-23T00:24:04;99941.50;;;2.47;93.36
53340;BME280;46212;50.258;19.062;2023-01-23T00:26:31;99950.09;;;2.49;92.82
53340;BME280;46212;50.258;19.062;2023-01-23T00:28:59;99941.75;;;2.39;92.62
53340;BME280;46212;50.258;19.062;2023-01-23T00:31:27;99955.78;;;2.37;92.66
53340;BME280;46212;50.258;19.062;2023-01-23T00:33:55;99964.94;;;2.26;93.86
53340;BME280;46212;50.258;19.062;2023-01-23T00:36:20;99953.59;;;1.97;94.47
53340;BME280;46212;50.258;19.062;2023-01-23T00:38:46;99953.13;;;1.92;95.60
53340;BME280;46212;50.258;19.062;2023-01-23T00:41:11;99958.03;;;2.05;95.44
53340;BME280;46212;50.258;19.062;2023-01-23T00:43:37;99961.63;;;2.13;95.30
53340;BME280;46212;50.258;19.062;2023-01-23T00:46:03;99978.09;;;2.46;94.45
53340;BME280;46212;50.258;19.062;2023-01-23T00:48:28;99973.06;;;2.48;94.05
53340;BME280;46212;50.258;19.062;2023-01-23T00:50:53;99967.59;;;2.48;93.88
53340;BME280;46212;50.258;19.062;2023-01-23T00:53:19;99974.91;;;2.41;93.87
53340;BME280;46212;50.258;19.062;2023-01-23T00:55:45;99965.50;;;2.38;93.66
53340;BME280;46212;50.258;19.062;2023-01-23T00:58:10;99975.44;;;2.50;93.79
53340;BME280;46212;50.258;19.062;2023-01-23T01:00:37;99979.13;;;2.64;93.55
53340;BME280;46212;50.258;19.062;2023-01-23T01:03:03;99958.69;;;2.51;93.13
53340;BME280;46212;50.258;19.062;2023-01-23T01:05:28;99977.19;;;2.65;93.35
53340;BME280;46212;50.258;19.062;2023-01-23T01:07:54;99969.69;;;2.58;92.57
53340;BME280;46212;50.258;19.062;2023-01-23T01:10:19;99954.13;;;2.59;92.96
53340;BME280;46212;50.258;19.062;2023-01-23T01:12:45;99973.25;;;2.62;92.91
53340;BME280;46212;50.258;19.062;2023-01-23T01:15:11;99951.13;;;2.38;93.56
53340;BME280;46212;50.258;19.062;2023-01-23T01:17:37;99955.16;;;2.47;93.70
53340;BME280;46212;50.258;19.062;2023-01-23T01:20:04;99967.84;;;2.66;93.29
53340;BME280;46212;50.258;19.062;2023-01-23T01:22:30;99968.66;;;2.70;92.54
53340;BME280;46212;50.258;19.062;2023-01-23T01:24:55;99963.03;;;2.56;92.60
53340;BME280;46212;50.258;19.062;2023-01-23T01:27:21;99982.44;;;2.51;93.39
53340;BME280;46212;50.258;19.062;2023-01-23T01:29:47;99988.63;;;2.48;93.67
53340;BME280;46212;50.258;19.062;2023-01-23T01:32:12;99985.53;;;2.49;93.68
53340;BME280;46212;50.258;19.062;2023-01-23T01:34:38;99988.50;;;2.37;94.07
53340;BME280;46212;50.258;19.062;2023-01-23T01:37:03;99994.19;;;2.29;94.45
53340;BME280;46212;50.258;19.062;2023-01-23T01:39:29;99987.72;;;2.14;94.96
53340;BME280;46212;50.258;19.062;2023-01-23T01:41:54;99992.25;;;2.29;95.02
53340;BME280;46212;50.258;19.062;2023-01-23T01:44:21;99976.47;;;2.16;94.91
53340;BME280;46212;50.258;19.062;2023-01-23T01:46:48;99967.59;;;2.48;94.21
53340;BME280;46212;50.258;19.062;2023-01-23T01:49:26;99991.47;;;2.55;93.64
53340;BME280;46212;50.258;19.062;2023-01-23T01:52:11;99983.97;;;2.48;93.30
53340;BME280;46212;50.258;19.062;2023-01-23T01:54:42;99986.91;;;2.36;93.55
53340;BME280;46212;50.258;19.062;2023-01-23T02:02:32;99991.16;;;2.60;92.70
53340;BME280;46212;50.258;19.062;2023-01-23T02:05:02;99992.41;;;2.40;92.92
53340;BME280;46212;50.258;19.062;2023-01-23T02:07:35;99998.16;;;2.35;93.49
53340;BME280;46212;50.258;19.062;2023-01-23T02:10:05;99984.34;;;2.21;94.32
53340;BME280;46212;50.258;19.062;2023-01-23T02:12:31;99998.44;;;2.26;94.43
53340;BME280;46212;50.258;19.062;2023-01-23T02:14:59;99996.75;;;2.18;94.82
53340;BME280;46212;50.258;19.062;2023-01-23T02:17:25;99998.09;;;2.28;95.15
53340;BME280;46212;50.258;19.062;2023-01-23T02:20:20;99991.09;;;2.30;94.57
53340;BME280;46212;50.258;19.062;2023-01-23T02:28:21;100004.47;;;2.39;94.83
53340;BME280;46212;50.258;19.062;2023-01-23T02:30:47;100015.22;;;2.54;93.69
53340;BME280;46212;50.258;19.062;2023-01-23T02:35:48;100015.66;;;2.07;94.31
53340;BME280;46212;50.258;19.062;2023-01-23T02:38:17;100018.31;;;2.04;95.38
53340;BME280;46212;50.258;19.062;2023-01-23T02:40:44;100028.38;;;2.00;95.93
53340;BME280;46212;50.258;19.062;2023-01-23T02:43:12;100027.53;;;1.96;96.02
53340;BME280;46212;50.258;19.062;2023-01-23T02:45:40;100034.97;;;2.22;96.06
53340;BME280;46212;50.258;19.062;2023-01-23T02:48:05;100015.22;;;2.28;95.58
53340;BME280;46212;50.258;19.062;2023-01-23T02:50:32;100020.59;;;2.51;94.47
53340;BME280;46212;50.258;19.062;2023-01-23T02:52:58;100025.38;;;2.57;94.16
53340;BME280;46212;50.258;19.062;2023-01-23T02:55:24;100013.16;;;2.48;93.57
53340;BME280;46212;50.258;19.062;2023-01-23T02:57:55;100030.84;;;2.57;93.83
53340;BME280;46212;50.258;19.062;2023-01-23T03:00:43;100031.94;;;2.53;93.49
53340;BME280;46212;50.258;19.062;2023-01-23T03:03:09;100032.75;;;2.53;93.41
53340;BME280;46212;50.258;19.062;2023-01-23T03:05:34;100024.28;;;2.36;93.99
53340;BME280;46212;50.258;19.062;2023-01-23T03:08:00;100035.56;;;2.34;94.76
53340;BME280;46212;50.258;19.062;2023-01-23T03:10:25;100030.13;;;2.34;94.84
53340;BME280;46212;50.258;19.062;2023-01-23T03:12:50;100027.28;;;2.27;94.87
53340;BME280;46212;50.258;19.062;2023-01-23T03:15:16;100030.25;;;2.45;94.34
53340;BME280;46212;50.258;19.062;2023-01-23T03:17:42;100032.41;;;2.32;94.61
53340;BME280;46212;50.258;19.062;2023-01-23T03:20:08;100025.22;;;2.21;94.97
53340;BME280;46212;50.258;19.062;2023-01-23T03:22:33;100029.69;;;2.32;94.65
53340;BME280;46212;50.258;19.062;2023-01-23T03:24:58;100011.19;;;2.19;94.86
53340;BME280;46212;50.258;19.062;2023-01-23T03:27:25;100031.34;;;2.66;93.54
53340;BME280;46212;50.258;19.062;2023-01-23T03:29:51;100030.44;;;2.55;93.27
53340;BME280;46212;50.258;19.062;2023-01-23T03:32:35;100031.03;;;2.19;93.99
53340;BME280;46212;50.258;19.062;2023-01-23T03:35:03;100040.66;;;2.13;94.72
53340;BME280;46212;50.258;19.062;2023-01-23T03:37:29;100032.81;;;2.08;95.13
53340;BME280;46212;50.258;19.062;2023-01-23T03:39:54;100039.09;;;2.12;95.68
53340;BME280;46212;50.258;19.062;2023-01-23T03:42:38;100037.13;;;2.35;94.84
53340;BME280;46212;50.258;19.062;2023-01-23T03:45:04;100026.00;;;2.21;94.83
53340;BME280;46212;50.258;19.062;2023-01-23T03:47:30;100037.50;;;2.34;94.50
53340;BME280;46212;50.258;19.062;2023-01-23T03:49:56;100037.25;;;2.20;94.60
53340;BME280;46212;50.258;19.062;2023-01-23T03:52:22;100019.59;;;2.10;94.88
53340;BME280;46212;50.258;19.062;2023-01-23T03:54:47;100019.38;;;2.22;94.94
53340;BME280;46212;50.258;19.062;2023-01-23T03:57:13;100041.09;;;2.41;94.12
53340;BME280;46212;50.258;19.062;2023-01-23T03:59:38;100027.28;;;2.27;94.13
53340;BME280;46212;50.258;19.062;2023-01-23T04:02:03;100039.34;;;2.52;93.83
53340;BME280;46212;50.258;19.062;2023-01-23T04:04:30;100035.56;;;2.34;93.64
53340;BME280;46212;50.258;19.062;2023-01-23T04:06:56;100032.00;;;2.56;93.57
53340;BME280;46212;50.258;19.062;2023-01-23T04:09:21;100024.00;;;2.44;93.36
53340;BME280;46212;50.258;19.062;2023-01-23T04:11:55;100027.38;;;2.34;94.04
53340;BME280;46212;50.258;19.062;2023-01-23T04:14:22;100026.38;;;2.46;93.95
53340;BME280;46212;50.258;19.062;2023-01-23T04:16:47;100041.44;;;2.36;93.69
53340;BME280;46212;50.258;19.062;2023-01-23T04:19:13;100028.06;;;2.28;94.05
53340;BME280;46212;50.258;19.062;2023-01-23T04:21:38;100026.69;;;2.14;94.10
53340;BME280;46212;50.258;19.062;2023-01-23T04:24:04;100031.13;;;2.26;94.30
53340;BME280;46212;50.258;19.062;2023-01-23T04:26:29;100038.59;;;2.29;94.16
53340;BME280;46212;50.258;19.062;2023-01-23T04:28:55;100045.81;;;2.44;94.10
53340;BME280;46212;50.258;19.062;2023-01-23T04:31:20;100047.72;;;2.40;94.07
53340;BME280;46212;50.258;19.062;2023-01-23T04:33:45;100059.97;;;2.27;94.37
53340;BME280;46212;50.258;19.062;2023-01-23T04:36:11;100058.19;;;2.12;94.87
53340;BME280;46212;50.258;19.062;2023-01-23T04:38:37;100069.84;;;2.12;95.16
53340;BME280;46212;50.258;19.062;2023-01-23T04:41:03;100057.06;;;2.17;95.32
53340;BME280;46212;50.258;19.062;2023-01-23T04:43:28;100067.81;;;2.55;94.52
53340;BME280;46212;50.258;19.062;2023-01-23T04:45:55;100059.44;;;2.41;93.57
53340;BME280;46212;50.258;19.062;2023-01-23T04:48:21;100078.94;;;2.43;93.52
53340;BME280;46212;50.258;19.062;2023-01-23T04:50:48;100083.38;;;2.28;94.30
53340;BME280;46212;50.258;19.062;2023-01-23T04:53:14;100089.03;;;2.42;93.97
53340;BME280;46212;50.258;19.062;2023-01-23T04:55:39;100085.47;;;2.38;93.51
53340;BME280;46212;50.258;19.062;2023-01-23T04:58:05;100088.63;;;2.66;93.58
53340;BME280;46212;50.258;19.062;2023-01-23T05:00:31;100087.31;;;2.57;92.99
53340;BME280;46212;50.258;19.062;2023-01-23T05:02:57;100077.41;;;2.45;93.11
53340;BME280;46212;50.258;19.062;2023-01-23T05:05:23;100090.63;;;2.43;93.24
53340;BME280;46212;50.258;19.062;2023-01-23T05:07:50;100099.41;;;2.33;93.63
53340;BME280;46212;50.258;19.062;2023-01-23T05:10:16;100110.56;;;2.47;93.89
53340;BME280;46212;50.258;19.062;2023-01-23T05:12:41;100097.28;;;2.46;93.91
53340;BME280;46212;50.258;19.062;2023-01-23T05:15:08;100101.31;;;2.55;92.97
53340;BME280;46212;50.258;19.062;2023-01-23T05:17:34;100086.19;;;2.35;93.46
53340;BME280;46212;50.258;19.062;2023-01-23T05:19:59;100102.06;;;2.52;93.25
53340;BME280;46212;50.258;19.062;2023-01-23T05:22:24;100098.34;;;2.64;92.89
53340;BME280;46212;50.258;19.062;2023-01-23T05:24:50;100103.72;;;2.60;92.36
53340;BME280;46212;50.258;19.062;2023-01-23T05:27:15;100105.72;;;2.63;92.58
53340;BME280;46212;50.258;19.062;2023-01-23T05:29:41;100092.75;;;2.53;92.27
53340;BME280;46212;50.258;19.062;2023-01-23T05:32:06;100098.22;;;2.57;92.63
53340;BME280;46212;50.258;19.062;2023-01-23T05:34:32;100068.88;;;2.47;92.69
53340;BME280;46212;50.258;19.062;2023-01-23T05:36:57;100096.78;;;2.63;92.34
53340;BME280;46212;50.258;19.062;2023-01-23T05:39:23;100108.31;;;2.53;92.41
53340;BME280;46212;50.258;19.062;2023-01-23T05:41:48;100098.91;;;2.50;93.14
53340;BME280;46212;50.258;19.062;2023-01-23T05:44:13;100099.94;;;2.42;93.46
53340;BME280;46212;50.258;19.062;2023-01-23T05:46:39;100088.84;;;2.32;94.07
53340;BME280;46212;50.258;19.062;2023-01-23T05:49:04;100109.91;;;2.31;93.91
53340;BME280;46212;50.258;19.062;2023-01-23T05:51:30;100109.72;;;2.43;94.18
53340;BME280;46212;50.258;19.062;2023-01-23T05:54:00;100115.56;;;2.23;94.06
53340;BME280;46212;50.258;19.062;2023-01-23T05:56:25;100119.75;;;2.39;94.72
53340;BME280;46212;50.258;19.062;2023-01-23T05:58:51;100119.75;;;2.39;93.87
53340;BME280;46212;50.258;19.062;2023-01-23T06:01:17;100118.63;;;2.18;94.03
53340;BME280;46212;50.258;19.062;2023-01-23T06:03:42;100127.88;;;2.36;94.56
53340;BME280;46212;50.258;19.062;2023-01-23T06:06:08;100101.06;;;2.38;94.25
53340;BME280;46212;50.258;19.062;2023-01-23T06:08:33;100112.25;;;2.55;93.31
53340;BME280;46212;50.258;19.062;2023-01-23T06:10:59;100108.38;;;2.34;93.46
53340;BME280;46212;50.258;19.062;2023-01-23T06:13:26;100123.56;;;2.35;94.33
53340;BME280;46212;50.258;19.062;2023-01-23T06:15:52;100131.25;;;2.29;94.33
53340;BME280;46212;50.258;19.062;2023-01-23T06:18:17;100137.75;;;2.21;94.77
53340;BME280;46212;50.258;19.062;2023-01-23T06:20:43;100148.22;;;2.19;94.51
53340;BME280;46212;50.258;19.062;2023-01-23T06:23:08;100147.38;;;2.15;95.09
53340;BME280;46212;50.258;19.062;2023-01-23T06:25:35;100149.94;;;2.27;94.89
53340;BME280;46212;50.258;19.062;2023-01-23T06:28:00;100172.09;;;2.48;94.57
53340;BME280;46212;50.258;19.062;2023-01-23T06:30:26;100177.44;;;2.41;94.43
53340;BME280;46212;50.258;19.062;2023-01-23T06:32:51;100171.81;;;2.53;94.14
53340;BME280;46212;50.258;19.062;2023-01-23T06:35:17;100171.03;;;2.53;93.53
53340;BME280;46212;50.258;19.062;2023-01-23T06:37:42;100175.63;;;2.72;92.65
53340;BME280;46212;50.258;19.062;2023-01-23T06:40:08;100180.59;;;2.66;92.29
53340;BME280;46212;50.258;19.062;2023-01-23T06:42:38;100183.63;;;2.61;92.54
53340;BME280;46212;50.258;19.062;2023-01-23T06:45:04;100174.09;;;2.51;92.74
53340;BME280;46212;50.258;19.062;2023-01-23T06:47:30;100185.81;;;2.52;93.01
53340;BME280;46212;50.258;19.062;2023-01-23T06:49:55;100178.81;;;2.54;93.04
53340;BME280;46212;50.258;19.062;2023-01-23T06:52:20;100176.75;;;2.48;93.44
53340;BME280;46212;50.258;19.062;2023-01-23T06:54:46;100171.69;;;2.46;93.57
53340;BME280;46212;50.258;19.062;2023-01-23T06:57:11;100184.72;;;2.56;93.47
53340;BME280;46212;50.258;19.062;2023-01-23T06:59:37;100186.22;;;2.54;93.52
53340;BME280;46212;50.258;19.062;2023-01-23T07:02:03;100190.16;;;2.34;94.02
53340;BME280;46212;50.258;19.062;2023-01-23T07:04:28;100198.09;;;2.42;94.31
53340;BME280;46212;50.258;19.062;2023-01-23T07:06:53;100193.66;;;2.57;94.29
53340;BME280;46212;50.258;19.062;2023-01-23T07:09:19;100197.63;;;2.59;93.72
53340;BME280;46212;50.258;19.062;2023-01-23T07:11:44;100189.56;;;2.44;94.50
53340;BME280;46212;50.258;19.062;2023-01-23T07:14:10;100191.31;;;2.33;94.65
53340;BME280;46212;50.258;19.062;2023-01-23T07:16:35;100200.34;;;2.37;95.29
53340;BME280;46212;50.258;19.062;2023-01-23T07:19:01;100204.81;;;2.48;95.57
53340;BME280;46212;50.258;19.062;2023-01-23T07:21:27;100199.97;;;2.61;94.53
53340;BME280;46212;50.258;19.062;2023-01-23T07:23:52;100207.19;;;2.50;94.70
53340;BME280;46212;50.258;19.062;2023-01-23T07:26:18;100207.94;;;2.47;94.87
53340;BME280;46212;50.258;19.062;2023-01-23T07:28:43;100217.13;;;2.61;94.38
53340;BME280;46212;50.258;19.062;2023-01-23T07:31:09;100202.22;;;2.55;93.91
53340;BME280;46212;50.258;19.062;2023-01-23T07:33:34;100218.19;;;2.53;94.43
53340;BME280;46212;50.258;19.062;2023-01-23T07:36:00;100209.81;;;2.65;94.59
53340;BME280;46212;50.258;19.062;2023-01-23T07:38:25;100219.38;;;2.79;93.31
53340;BME280;46212;50.258;19.062;2023-01-23T07:40:51;100209.81;;;2.65;93.04
53340;BME280;46212;50.258;19.062;2023-01-23T07:43:17;100222.34;;;2.47;94.05
53340;BME280;46212;50.258;19.062;2023-01-23T07:45:43;100230.53;;;2.47;94.37
53340;BME280;46212;50.258;19.062;2023-01-23T07:48:09;100212.94;;;2.67;94.46
53340;BME280;46212;50.258;19.062;2023-01-23T07:50:34;100215.41;;;2.73;93.90
53340;BME280;46212;50.258;19.062;2023-01-23T07:53:02;100228.56;;;2.48;94.33
53340;BME280;46212;50.258;19.062;2023-01-23T07:55:28;100232.44;;;2.24;95.30
53340;BME280;46212;50.258;19.062;2023-01-23T07:57:54;100222.69;;;2.04;96.64
53340;BME280;46212;50.258;19.062;2023-01-23T08:00:20;100239.09;;;2.27;97.13
53340;BME280;46212;50.258;19.062;2023-01-23T08:02:46;100236.81;;;2.51;96.44
53340;BME280;46212;50.258;19.062;2023-01-23T08:05:11;100233.91;;;2.63;95.63
53340;BME280;46212;50.258;19.062;2023-01-23T08:07:37;100241.97;;;2.79;95.07
53340;BME280;46212;50.258;19.062;2023-01-23T08:10:02;100236.97;;;3.04;93.63
53340;BME280;46212;50.258;19.062;2023-01-23T08:12:28;100226.56;;;3.13;92.67
53340;BME280;46212;50.258;19.062;2023-01-23T08:14:53;100238.16;;;3.06;92.74
53340;BME280;46212;50.258;19.062;2023-01-23T08:17:19;100233.44;;;3.03;92.52
53340;BME280;46212;50.258;19.062;2023-01-23T08:19:45;100257.00;;;3.15;91.93
53340;BME280;46212;50.258;19.062;2023-01-23T08:22:10;100263.00;;;3.24;91.99
53340;BME280;46212;50.258;19.062;2023-01-23T08:24:36;100240.34;;;3.20;91.81
53340;BME280;46212;50.258;19.062;2023-01-23T08:27:01;100245.47;;;3.25;91.52
53340;BME280;46212;50.258;19.062;2023-01-23T08:29:26;100248.00;;;3.37;91.17
53340;BME280;46212;50.258;19.062;2023-01-23T08:31:52;100250.25;;;3.32;90.96
53340;BME280;46212;50.258;19.062;2023-01-23T08:34:19;100253.16;;;3.42;90.67
53340;BME280;46212;50.258;19.062;2023-01-23T08:36:45;100246.16;;;3.45;90.77
53340;BME280;46212;50.258;19.062;2023-01-23T08:39:10;100256.63;;;3.39;90.57
53340;BME280;46212;50.258;19.062;2023-01-23T08:41:36;100246.69;;;3.28;91.25
53340;BME280;46212;50.258;19.062;2023-01-23T08:44:01;100236.94;;;3.27;90.72
53340;BME280;46212;50.258;19.062;2023-01-23T08:46:28;100259.38;;;3.43;90.57
53340;BME280;46212;50.258;19.062;2023-01-23T08:48:53;100273.38;;;3.38;91.09
53340;BME280;46212;50.258;19.062;2023-01-23T08:51:19;100272.31;;;3.46;91.13
53340;BME280;46212;50.258;19.062;2023-01-23T08:53:45;100254.88;;;3.28;91.45
53340;BME280;46212;50.258;19.062;2023-01-23T08:56:16;100256.75;;;3.50;91.39
53340;BME280;46212;50.258;19.062;2023-01-23T08:58:41;100257.88;;;3.45;91.35
53340;BME280;46212;50.258;19.062;2023-01-23T09:01:14;100245.03;;;3.49;90.69
53340;BME280;46212;50.258;19.062;2023-01-23T09:03:40;100267.81;;;3.57;90.46
53340;BME280;46212;50.258;19.062;2023-01-23T09:06:06;100256.88;;;3.57;90.15
53340;BME280;46212;50.258;19.062;2023-01-23T09:08:33;100260.81;;;3.59;89.99
53340;BME280;46212;50.258;19.062;2023-01-23T09:11:03;100254.56;;;3.59;90.16
53340;BME280;46212;50.258;19.062;2023-01-23T09:13:29;100263.22;;;3.64;90.24
53340;BME280;46212;50.258;19.062;2023-01-23T09:15:55;100262.75;;;3.59;90.38
53340;BME280;46212;50.258;19.062;2023-01-23T09:18:20;100246.63;;;3.50;90.46
53340;BME280;46212;50.258;19.062;2023-01-23T09:20:47;100253.00;;;3.58;90.53
53340;BME280;46212;50.258;19.062;2023-01-23T09:23:13;100265.75;;;3.77;89.90
53340;BME280;46212;50.258;19.062;2023-01-23T09:25:39;100255.50;;;3.70;89.86
53340;BME280;46212;50.258;19.062;2023-01-23T09:28:05;100248.34;;;3.62;89.83
53340;BME280;46212;50.258;19.062;2023-01-23T09:30:31;100254.47;;;3.82;89.68
53340;BME280;46212;50.258;19.062;2023-01-23T09:32:56;100250.59;;;3.83;89.05
53340;BME280;46212;50.258;19.062;2023-01-23T09:35:22;100256.56;;;3.92;88.90
53340;BME280;46212;50.258;19.062;2023-01-23T09:37:48;100260.03;;;3.89;88.87
53340;BME280;46212;50.258;19.062;2023-01-23T09:40:36;100260.09;;;3.92;88.39
53340;BME280;46212;50.258;19.062;2023-01-23T09:51:04;100234.44;;;3.70;89.28
53340;BME280;46212;50.258;19.062;2023-01-23T09:53:36;100250.91;;;3.78;89.69
53340;BME280;46212;50.258;19.062;2023-01-23T09:59:00;100260.69;;;3.79;89.81
53340;BME280;46212;50.258;19.062;2023-01-23T10:01:28;100248.56;;;3.76;89.91
53340;BME280;46212;50.258;19.062;2023-01-23T10:03:57;100245.88;;;3.80;89.75
53340;BME280;46212;50.258;19.062;2023-01-23T10:06:51;100240.91;;;3.59;89.97
53340;BME280;46212;50.258;19.062;2023-01-23T10:12:46;100247.03;;;3.79;89.84
53340;BME280;46212;50.258;19.062;2023-01-23T10:24:00;100250.78;;;3.67;90.76
53340;BME280;46212;50.258;19.062;2023-01-23T10:26:31;100253.13;;;3.68;91.27
53340;BME280;46212;50.258;19.062;2023-01-23T10:29:05;100242.69;;;3.74;90.65
53340;BME280;46212;50.258;19.062;2023-01-23T10:31:38;100243.38;;;3.67;90.65
53340;BME280;46212;50.258;19.062;2023-01-23T10:34:12;100258.09;;;3.89;90.20
53340;BME280;46212;50.258;19.062;2023-01-23T10:37:06;100259.81;;;4.01;89.80
53340;BME280;46212;50.258;19.062;2023-01-23T10:40:09;100259.00;;;4.00;89.58
53340;BME280;46212;50.258;19.062;2023-01-23T10:42:31;100246.44;;;3.92;89.72
53340;BME280;46212;50.258;19.062;2023-01-23T10:44:57;100245.00;;;4.02;89.75
53340;BME280;46212;50.258;19.062;2023-01-23T10:47:49;100238.34;;;4.03;89.50
53340;BME280;46212;50.258;19.062;2023-01-23T10:50:14;100240.63;;;3.97;89.59
53340;BME280;46212;50.258;19.062;2023-01-23T10:52:44;100226.84;;;3.90;90.38
53340;BME280;46212;50.258;19.062;2023-01-23T10:57:47;100233.56;;;3.93;90.42
53340;BME280;46212;50.258;19.062;2023-01-23T11:05:53;100234.78;;;3.99;90.36
53340;BME280;46212;50.258;19.062;2023-01-23T11:08:29;100237.16;;;4.00;90.71
53340;BME280;46212;50.258;19.062;2023-01-23T11:13:39;100225.47;;;4.03;90.20
53340;BME280;46212;50.258;19.062;2023-01-23T11:16:05;100229.13;;;4.14;89.70
53340;BME280;46212;50.258;19.062;2023-01-23T11:18:38;100217.81;;;4.16;89.25
53340;BME280;46212;50.258;19.062;2023-01-23T11:21:27;100216.91;;;4.05;89.59
53340;BME280;46212;50.258;19.062;2023-01-23T11:24:18;100205.88;;;3.98;89.68
53340;BME280;46212;50.258;19.062;2023-01-23T11:26:44;100200.97;;;3.81;90.16
53340;BME280;46212;50.258;19.062;2023-01-23T11:29:24;100205.88;;;3.98;90.04
53340;BME280;46212;50.258;19.062;2023-01-23T11:31:54;100200.56;;;4.08;89.94
53340;BME280;46212;50.258;19.062;2023-01-23T11:34:26;100188.44;;;4.09;89.67
53340;BME280;46212;50.258;19.062;2023-01-23T11:42:02;100188.16;;;4.18;88.81
53340;BME280;46212;50.258;19.062;2023-01-23T11:44:28;100201.13;;;4.24;88.51
53340;BME280;46212;50.258;19.062;2023-01-23T11:50:10;100197.63;;;4.27;88.06
53340;BME280;46212;50.258;19.062;2023-01-23T12:04:17;100191.91;;;4.40;87.72
53340;BME280;46212;50.258;19.062;2023-01-23T12:09:28;100171.59;;;4.41;87.26
53340;BME280;46212;50.258;19.062;2023-01-23T12:12:19;100166.97;;;4.48;86.89
53340;BME280;46212;50.258;19.062;2023-01-23T12:14:55;100171.03;;;4.65;86.42
53340;BME280;46212;50.258;19.062;2023-01-23T12:17:41;100171.88;;;4.72;86.10
53340;BME280;46212;50.258;19.062;2023-01-23T12:25:36;100153.56;;;4.80;84.82
53340;BME280;46212;50.258;19.062;2023-01-23T12:41:51;100165.88;;;5.04;84.43
53340;BME280;46212;50.258;19.062;2023-01-23T12:44:51;100177.50;;;4.94;84.85
53340;BME280;46212;50.258;19.062;2023-01-23T12:47:27;100160.69;;;4.95;84.78
53340;BME280;46212;50.258;19.062;2023-01-23T12:50:02;100161.84;;;4.91;84.61
53340;BME280;46212;50.258;19.062;2023-01-23T12:52:36;100179.72;;;4.77;84.96
53340;BME280;46212;50.258;19.062;2023-01-23T12:55:20;100175.84;;;4.78;85.81
53340;BME280;46212;50.258;19.062;2023-01-23T12:57:50;100181.41;;;4.93;84.64
53340;BME280;46212;50.258;19.062;2023-01-23T13:05:52;100186.00;;;4.78;85.67
53340;BME280;46212;50.258;19.062;2023-01-23T13:11:46;100171.34;;;4.56;86.32
53340;BME280;46212;50.258;19.062;2023-01-23T13:16:45;100185.09;;;4.67;86.40
53340;BME280;46212;50.258;19.062;2023-01-23T13:19:31;100189.78;;;4.66;85.93
53340;BME280;46212;50.258;19.062;2023-01-23T13:22:26;100188.19;;;4.62;86.37
53340;BME280;46212;50.258;19.062;2023-01-23T13:27:56;100188.53;;;4.53;86.62
53340;BME280;46212;50.258;19.062;2023-01-23T13:52:31;100211.53;;;4.12;88.06
53340;BME280;46212;50.258;19.062;2023-01-23T13:55:31;100204.47;;;4.11;88.31
53340;BME280;46212;50.258;19.062;2023-01-23T13:58:22;100208.66;;;4.01;88.48
53340;BME280;46212;50.258;19.062;2023-01-23T14:00:54;100203.06;;;3.91;89.17
53340;BME280;46212;50.258;19.062;2023-01-23T14:03:49;100188.59;;;3.90;89.03
53340;BME280;46212;50.258;19.062;2023-01-23T14:06:36;100197.53;;;3.87;89.58
53340;BME280;46212;50.258;19.062;2023-01-23T14:09:02;100198.03;;;3.93;89.26
53340;BME280;46212;50.258;19.062;2023-01-23T14:11:37;100199.56;;;3.94;89.30
53340;BME280;46212;50.258;19.062;2023-01-23T14:14:04;100197.78;;;3.75;89.54
53340;BME280;46212;50.258;19.062;2023-01-23T14:16:49;100203.75;;;3.84;89.73
53340;BME280;46212;50.258;19.062;2023-01-23T14:19:26;100206.88;;;3.83;89.69
53340;BME280;46212;50.258;19.062;2023-01-23T14:21:54;100211.78;;;3.70;89.83
53340;BME280;46212;50.258;19.062;2023-01-23T14:24:45;100219.66;;;3.75;90.17
53340;BME280;46212;50.258;19.062;2023-01-23T14:32:27;100218.00;;;3.67;90.48
53340;BME280;46212;50.258;19.062;2023-01-23T14:34:53;100207.59;;;3.50;90.64
53340;BME280;46212;50.258;19.062;2023-01-23T14:37:18;100214.25;;;3.52;91.30
53340;BME280;46212;50.258;19.062;2023-01-23T14:39:45;100217.31;;;3.47;91.36
53340;BME280;46212;50.258;19.062;2023-01-23T14:42:28;100213.28;;;3.38;92.27
53340;BME280;46212;50.258;19.062;2023-01-23T14:44:55;100214.44;;;3.37;92.55
53340;BME280;46212;50.258;19.062;2023-01-23T14:47:31;100211.69;;;3.37;92.43
53340;BME280;46212;50.258;19.062;2023-01-23T14:49:57;100216.06;;;3.41;91.96
53340;BME280;46212;50.258;19.062;2023-01-23T14:52:25;100205.84;;;3.35;92.02
53340;BME280;46212;50.258;19.062;2023-01-23T14:54:53;100207.38;;;3.32;92.50
53340;BME280;46212;50.258;19.062;2023-01-23T14:57:19;100202.25;;;3.31;92.34
53340;BME280;46212;50.258;19.062;2023-01-23T14:59:46;100207.72;;;3.31;92.28
53340;BME280;46212;50.258;19.062;2023-01-23T15:07:48;100204.06;;;3.19;92.53
53340;BME280;46212;50.258;19.062;2023-01-23T15:10:18;100200.53;;;3.19;92.38
53340;BME280;46212;50.258;19.062;2023-01-23T15:15:54;100201.63;;;3.14;92.63
53340;BME280;46212;50.258;19.062;2023-01-23T15:18:23;100216.19;;;3.22;92.43
53340;BME280;46212;50.258;19.062;2023-01-23T15:20:54;100213.78;;;3.17;92.67